This is the latest recevied weather packets stored in our database for station/object EA4BCR. If no packets are shown the sender has not sent any weather packets the latest 1 day(s).
| Time | Temp. | Humidity | Pressure | Rain* | Wind** | Luminosity | Snow |
|---|---|---|---|---|---|---|---|
| 1778079655 | 21.67° C | 30% | 1006.7 hPa | - | - | - | - |
| 1778077255 | 21.11° C | 32% | 1007.5 hPa | - | - | - | - |
| 1778068855 | 21.11° C | 33% | 1008.7 hPa | - | - | - | - |
| 1778067655 | 19.44° C | 34% | 1009.5 hPa | - | - | - | - |
| 1778064655 | 20° C | 36% | 1009.8 hPa | - | - | - | - |
| 1778061655 | 18.89° C | 36% | 1010.2 hPa | - | - | - | - |
| 1778060454 | 18.33° C | 40% | 1010.4 hPa | - | - | - | - |
| 1778059255 | 17.22° C | 41% | 1010.8 hPa | - | - | - | - |
| 1778058655 | 16.11° C | 45% | 1011.2 hPa | - | - | - | - |
| 1778057454 | 15.56° C | 48% | 1011.4 hPa | - | - | - | - |
| 1778056854 | 15.56° C | 45% | 1011.4 hPa | - | - | - | - |
| 1778055054 | 13.33° C | 61% | 1012.4 hPa | - | - | - | - |
| 1778054454 | 11.67° C | 67% | 1013.1 hPa | - | - | - | - |
| 1778053855 | 12.22° C | 69% | 1012.8 hPa | - | - | - | - |
| 1778053254 | 11.11° C | 73% | 1013.3 hPa | - | - | - | - |
| 1778052060 | 10.56° C | 75% | 1013.5 hPa | - | - | - | - |
| 1778048454 | 7.78° C | 85% | 1014.6 hPa | - | - | - | - |
| 1778047254 | 7.22° C | 87% | 1014.9 hPa | - | - | - | - |
| 1778046654 | 6.67° C | 88% | 1015.1 hPa | - | - | - | - |
| 1778046054 | 6.11° C | 90% | 1015.2 hPa | - | - | - | - |
| 1778044854 | 6.11° C | 85% | 1015.2 hPa | - | - | - | - |
| 1778044254 | 6.11° C | 85% | 1015 hPa | - | - | - | - |
| 1778043054 | 6.11° C | 84% | 1015 hPa | - | - | - | - |
| 1778042454 | 6.67° C | 83% | 1014.8 hPa | - | - | - | - |
| 1778041854 | 6.67° C | 84% | 1014.8 hPa | - | - | - | - |
* Rain since midnight (hover to see other rain measurements)
** Current wind speed in m/s (hover to see current wind gust speed)